Levant, Maine
Current Conditions -  °F | °C
As of 3:53 AM on Saturday 25 Oct 2014 (Local Time) from KBGR Reporting Station
Overcast Overcast  
Wind Chill: 42°   Ceiling: 2400
Heat Index: 45°   Visibility: 10mi
Dew Point: 42°   Wind: 6mph
Humidity: 90%   Direction: 310°NW
Pressure: 29.66"   Gusts: NA
Location:  44.87°N, 68.94°W
Report Text: KBGR 250753Z 31005KT 10SM OVC024 07/06 A2966 RMK AO2 SLP042 T00720056
Loading
Personal Weather Stations






























Interactive Weather Map
Tropical Storm Tracking
New forecast layout! Learn more

10-Day Weather Forecast

Advertisements
Track Severe Weather on mobile